Startpagina
METAR-TAF:

METAR-TAF

Vliegvelden :

Luchthaven Stockholm-Arlanda

Stockholm-Arlanda, Zweden

breedte: 59-39N, lengte: 017-57E, hoogte: 38 m

Actueel weer

Dit bericht is 37 minuten geleden gemaakt, om 16:50 UTC
Wind 6 kt uit het westen
Temperatuur 8°C
Vochtigheid 61%
Druk 1016 hPa
Zicht 10 km of meer
geen wolken onder 1500 m en geen cumulonimbus

METAR: ESSA 201650Z 26006KT CAVOK 08/01 Q1016 R01L/19//95 R08/19//95 R01R/19//95 NOSIG

Tijdstip: 18:27 (17:27 UTC)

Verwachting

Dit bericht is 5 uur en het 57 minuten geleden gemaakt, om 11:30 UTC
Verwachting geldig van 20 om 12 UTC tot 21 om 12 UTC
Wind 10 kt uit het westen
Zicht 10 km of meer
Gebroken wolken op 900 ft
Wijzigt naar
van 20 om 12 UTC tot 20 om 14 UTC
Kans 40%
van 21 om 00 UTC tot 21 om 08 UTC
Zicht: 4000 m
nevel
Kans 40%
van 21 om 08 UTC tot 21 om 12 UTC
Zicht: 2500 m
Gebroken wolken op 400 ft
motregen

TAF: ESSA 201130Z 2012/2112 26010KT 9999 BKN009 BECMG 2012/2014 NSC PROB40 2100/2108 4000 BR PROB40 2108/2112 2500 DZ BKN004

Waarnemingen en weersverwachtingen van meer dan 4000 vliegvelden (METAR en TAF).

De beschikbare stations zijn de gele en rode punten op de kaart.

Ga met uw muis naar het station om de naam te zien.

Klik dan om waarnemingen en weersverwachtingen te zien.

kaart wijzigen: klik op de groene knoppen met een zwart kruis om in te zoomen, op de groene knop met een streepje om uit te zoomen of op de groene pijlen voor aangrenzende kaarten.


METAR-TAF: